createdAt,value
2022-12-07T00:01:41.595Z,5.26
2022-12-07T00:04:11.270Z,5.38
2022-12-07T00:06:40.902Z,5.00
2022-12-07T00:09:10.790Z,5.06
2022-12-07T00:11:37.530Z,4.98
2022-12-07T00:14:08.397Z,4.90
2022-12-07T00:16:35.741Z,4.84
2022-12-07T00:19:03.529Z,4.94
2022-12-07T00:21:32.425Z,4.70
2022-12-07T00:24:00.649Z,4.75
2022-12-07T00:26:32.968Z,4.70
2022-12-07T00:29:04.218Z,4.64
2022-12-07T00:31:36.759Z,4.83
2022-12-07T00:34:03.379Z,4.99
2022-12-07T00:36:30.378Z,4.73
2022-12-07T00:39:07.525Z,4.84
2022-12-07T00:41:34.586Z,4.71
2022-12-07T00:44:01.395Z,4.47
2022-12-07T00:46:32.409Z,4.16
2022-12-07T00:48:59.710Z,3.87
2022-12-07T00:51:26.746Z,3.89
2022-12-07T00:53:53.542Z,4.00
2022-12-07T00:56:23.023Z,4.13
2022-12-07T00:59:01.330Z,3.92
2022-12-07T01:01:31.254Z,4.21
2022-12-07T01:03:57.990Z,4.15
2022-12-07T01:06:25.886Z,4.05
2022-12-07T01:08:52.853Z,4.04
2022-12-07T01:11:24.245Z,4.24
2022-12-07T01:13:55.689Z,4.40
2022-12-07T01:16:24.173Z,4.66
2022-12-07T01:18:53.861Z,4.45
2022-12-07T01:21:34.810Z,4.15
2022-12-07T01:24:02.046Z,3.97
2022-12-07T01:26:31.442Z,3.99
2022-12-07T01:28:58.137Z,3.73
2022-12-07T01:31:26.369Z,3.88
2022-12-07T01:33:55.587Z,3.79
2022-12-07T01:36:28.821Z,3.73
2022-12-07T01:39:02.714Z,3.77
2022-12-07T01:41:32.847Z,3.95
2022-12-07T01:44:18.312Z,3.91
2022-12-07T01:46:47.484Z,3.97
2022-12-07T01:49:29.671Z,4.12
2022-12-07T01:52:03.103Z,4.09
2022-12-07T01:54:29.739Z,4.06
2022-12-07T01:56:58.226Z,4.09
2022-12-07T01:59:25.870Z,4.15
2022-12-07T02:01:53.823Z,4.14
2022-12-07T02:04:20.495Z,4.15
2022-12-07T02:06:48.054Z,4.26
2022-12-07T02:09:14.761Z,4.39
2022-12-07T02:11:41.813Z,4.33
2022-12-07T02:14:08.413Z,4.42
2022-12-07T02:17:20.910Z,4.31
2022-12-07T02:20:09.097Z,4.13
2022-12-07T02:23:01.835Z,4.37
2022-12-07T02:25:52.180Z,4.34
2022-12-07T02:28:58.134Z,4.30
2022-12-07T02:31:25.919Z,4.38
2022-12-07T02:34:24.698Z,4.52
2022-12-07T02:36:56.451Z,4.78
2022-12-07T02:39:47.342Z,4.77
2022-12-07T02:42:18.193Z,4.67
2022-12-07T02:44:48.264Z,4.69
2022-12-07T02:47:17.208Z,4.52
2022-12-07T02:49:43.990Z,4.45
2022-12-07T02:52:10.703Z,4.44
2022-12-07T02:54:37.188Z,4.53
2022-12-07T02:57:14.366Z,4.21
2022-12-07T03:00:02.269Z,4.24
2022-12-07T03:02:54.299Z,4.35
2022-12-07T03:05:37.242Z,4.46
2022-12-07T03:08:09.783Z,4.66
2022-12-07T03:10:45.645Z,4.68
2022-12-07T03:13:30.559Z,4.77
2022-12-07T03:15:57.291Z,4.66
2022-12-07T03:18:26.170Z,4.56
2022-12-07T03:20:55.570Z,4.68
2022-12-07T03:23:24.779Z,4.66
2022-12-07T03:26:00.384Z,4.77
2022-12-07T03:28:32.698Z,4.49
2022-12-07T03:31:13.028Z,4.09
2022-12-07T03:33:39.523Z,4.07
2022-12-07T03:36:09.828Z,3.78
2022-12-07T03:38:53.199Z,3.50
2022-12-07T03:41:24.102Z,3.32
2022-12-07T03:43:50.717Z,3.25
2022-12-07T03:46:30.378Z,3.09
2022-12-07T03:49:00.845Z,2.96
2022-12-07T03:51:45.610Z,2.83
2022-12-07T03:54:15.011Z,2.77
2022-12-07T03:56:42.088Z,2.70
2022-12-07T03:59:09.305Z,2.77
2022-12-07T04:01:35.938Z,2.87
2022-12-07T04:04:02.537Z,2.86
2022-12-07T04:06:29.175Z,3.02
2022-12-07T04:08:55.714Z,3.05
2022-12-07T04:11:22.223Z,3.05
2022-12-07T04:14:08.782Z,3.15
2022-12-07T04:16:53.934Z,3.17
2022-12-07T04:19:22.111Z,3.04
2022-12-07T04:21:48.633Z,3.10
2022-12-07T04:24:16.587Z,3.10
2022-12-07T04:26:43.574Z,3.03
2022-12-07T04:29:10.486Z,2.90
2022-12-07T04:31:37.830Z,3.03
2022-12-07T04:34:05.042Z,2.98
2022-12-07T04:36:35.166Z,2.91
2022-12-07T04:39:04.521Z,2.88
2022-12-07T04:41:31.671Z,3.04
2022-12-07T04:44:01.660Z,3.05
2022-12-07T04:46:29.584Z,2.99
2022-12-07T04:48:56.819Z,2.93
2022-12-07T04:51:25.727Z,2.96
2022-12-07T04:53:52.546Z,3.03
2022-12-07T04:56:19.620Z,3.06
2022-12-07T04:58:47.176Z,3.33
2022-12-07T05:01:15.184Z,3.29
2022-12-07T05:03:41.926Z,3.31
2022-12-07T05:06:13.206Z,3.40
2022-12-07T05:08:40.477Z,3.41
2022-12-07T05:11:07.334Z,3.25
2022-12-07T05:13:34.293Z,3.27
2022-12-07T05:16:00.941Z,3.13
2022-12-07T05:18:27.558Z,3.07
2022-12-07T05:20:54.221Z,2.97
2022-12-07T05:23:20.912Z,2.88
2022-12-07T05:25:47.655Z,2.80
2022-12-07T05:28:16.720Z,2.91
2022-12-07T05:30:43.557Z,2.86
2022-12-07T05:33:10.074Z,2.86
2022-12-07T05:35:36.629Z,2.78
2022-12-07T05:38:03.211Z,2.88
2022-12-07T05:40:29.965Z,2.84
2022-12-07T05:43:01.237Z,2.86
2022-12-07T05:45:31.104Z,2.74
2022-12-07T05:47:57.709Z,2.55
2022-12-07T05:50:24.404Z,2.49
2022-12-07T05:52:51.247Z,2.29
2022-12-07T05:55:17.830Z,2.31
2022-12-07T05:57:47.275Z,2.28
2022-12-07T06:00:14.758Z,2.23
2022-12-07T06:02:41.657Z,2.03
2022-12-07T06:05:08.489Z,1.96
2022-12-07T06:07:38.268Z,1.96
2022-12-07T06:10:05.546Z,2.09
2022-12-07T06:12:32.063Z,2.09
2022-12-07T06:14:58.897Z,2.10
2022-12-07T06:17:25.650Z,2.06
2022-12-07T06:19:52.372Z,2.14
2022-12-07T06:22:19.168Z,1.99
2022-12-07T06:24:45.953Z,1.89
2022-12-07T06:27:12.698Z,2.13
2022-12-07T06:29:39.474Z,2.07
2022-12-07T06:32:06.326Z,2.07
2022-12-07T06:34:33.072Z,2.06
2022-12-07T06:36:59.571Z,2.09
2022-12-07T06:39:27.701Z,2.05
2022-12-07T06:41:54.353Z,1.95
2022-12-07T06:44:22.045Z,2.05
2022-12-07T06:46:49.781Z,2.18
2022-12-07T06:49:16.638Z,2.16
2022-12-07T06:51:44.121Z,2.32
2022-12-07T06:54:15.155Z,2.36
2022-12-07T06:56:43.197Z,2.34
2022-12-07T06:59:09.935Z,2.33
2022-12-07T07:01:37.286Z,2.30
2022-12-07T07:04:04.539Z,2.22
2022-12-07T07:06:31.110Z,2.29
2022-12-07T07:08:57.750Z,2.40
2022-12-07T07:11:26.019Z,2.42
2022-12-07T07:13:52.530Z,2.47
2022-12-07T07:16:19.123Z,2.45
2022-12-07T07:18:45.747Z,2.43
2022-12-07T07:21:12.438Z,2.59
2022-12-07T07:23:39.044Z,2.58
2022-12-07T07:26:06.850Z,2.71
2022-12-07T07:28:33.765Z,2.50
2022-12-07T07:31:00.458Z,2.32
2022-12-07T07:33:27.208Z,2.19
2022-12-07T07:35:53.819Z,2.23
2022-12-07T07:38:20.589Z,2.32
2022-12-07T07:40:47.210Z,2.30
2022-12-07T07:43:13.758Z,2.54
2022-12-07T07:45:40.372Z,2.45
2022-12-07T07:48:07.130Z,2.43
2022-12-07T07:50:33.659Z,2.32
2022-12-07T07:53:00.481Z,2.25
2022-12-07T07:55:27.065Z,2.41
2022-12-07T07:57:55.087Z,2.15
2022-12-07T08:00:22.774Z,2.25
2022-12-07T08:02:49.427Z,2.31
2022-12-07T08:05:16.100Z,2.46
2022-12-07T08:07:43.030Z,2.38
2022-12-07T08:10:12.154Z,2.33
2022-12-07T08:12:40.172Z,2.32
2022-12-07T08:15:07.423Z,2.31
2022-12-07T08:17:36.359Z,2.42
2022-12-07T08:20:03.218Z,2.16
2022-12-07T08:22:29.981Z,2.15
2022-12-07T08:24:56.513Z,2.27
2022-12-07T08:27:23.095Z,2.32
2022-12-07T08:29:49.758Z,2.31
2022-12-07T08:32:16.278Z,2.25
2022-12-07T08:34:42.885Z,2.29
2022-12-07T08:37:10.184Z,2.30
2022-12-07T08:39:36.675Z,2.25
2022-12-07T08:42:03.351Z,2.14
2022-12-07T08:44:29.905Z,2.29
2022-12-07T08:47:02.894Z,2.31
2022-12-07T08:49:35.380Z,2.24
2022-12-07T08:52:08.094Z,2.02
2022-12-07T08:54:37.198Z,2.13
2022-12-07T08:57:05.945Z,2.01
2022-12-07T08:59:34.302Z,2.18
2022-12-07T09:02:00.857Z,2.50
2022-12-07T09:04:27.417Z,2.72
2022-12-07T09:07:01.372Z,3.06
2022-12-07T09:09:27.877Z,3.18
2022-12-07T09:11:54.691Z,3.34
2022-12-07T09:14:21.265Z,3.83
2022-12-07T09:16:47.795Z,4.31
2022-12-07T09:19:14.435Z,4.74
2022-12-07T09:21:41.068Z,4.89
2022-12-07T09:24:07.775Z,5.11
2022-12-07T09:26:34.374Z,4.83
2022-12-07T09:29:00.890Z,4.48
2022-12-07T09:31:27.716Z,4.73
2022-12-07T09:33:58.825Z,4.71
2022-12-07T09:36:26.261Z,4.77
2022-12-07T09:38:55.453Z,5.12
2022-12-07T09:41:22.980Z,4.97
2022-12-07T09:43:49.799Z,5.15
2022-12-07T09:46:17.392Z,5.43
2022-12-07T09:48:44.662Z,5.51
2022-12-07T09:51:23.297Z,5.46
2022-12-07T09:53:55.704Z,4.77
2022-12-07T09:56:23.074Z,5.17
2022-12-07T09:58:50.135Z,5.51
2022-12-07T10:01:19.448Z,5.61
2022-12-07T10:03:52.885Z,5.69
2022-12-07T10:06:19.590Z,5.82
2022-12-07T10:08:46.118Z,5.70
2022-12-07T10:11:13.048Z,5.86
2022-12-07T10:13:44.396Z,5.63
2022-12-07T10:16:26.201Z,5.54
2022-12-07T10:18:53.151Z,5.23
2022-12-07T10:21:22.372Z,5.30
2022-12-07T10:24:13.871Z,5.85
2022-12-07T10:27:00.636Z,6.19
2022-12-07T10:29:38.049Z,6.34
2022-12-07T10:32:33.903Z,6.53
2022-12-07T10:35:24.980Z,6.64
2022-12-07T10:37:52.878Z,6.51
2022-12-07T10:40:30.013Z,6.41
2022-12-07T10:43:07.230Z,6.38
2022-12-07T10:45:42.432Z,6.33
2022-12-07T10:48:23.514Z,5.71
2022-12-07T10:51:07.279Z,5.72
2022-12-07T10:53:57.221Z,5.65
2022-12-07T10:56:52.520Z,5.54
2022-12-07T10:59:36.614Z,5.47
2022-12-07T11:02:28.078Z,5.46
2022-12-07T11:05:05.157Z,5.18
2022-12-07T11:08:02.316Z,4.99
2022-12-07T11:10:53.462Z,4.99
2022-12-07T11:13:46.305Z,5.33
2022-12-07T11:16:31.411Z,5.42
2022-12-07T11:19:11.468Z,5.62
2022-12-07T11:22:02.940Z,5.93
2022-12-07T11:24:42.300Z,5.81
2022-12-07T11:27:19.014Z,5.61
2022-12-07T11:30:09.588Z,5.43
2022-12-07T11:32:38.961Z,5.30
2022-12-07T11:35:44.158Z,5.03
2022-12-07T11:38:28.104Z,5.16
2022-12-07T11:41:01.935Z,5.15
2022-12-07T11:43:32.633Z,5.02
2022-12-07T11:46:27.300Z,5.07
2022-12-07T11:49:09.162Z,5.40
2022-12-07T11:51:38.056Z,5.39
2022-12-07T11:54:23.080Z,5.51
2022-12-07T11:56:50.688Z,6.01
2022-12-07T11:59:23.528Z,6.43
2022-12-07T12:01:53.888Z,6.34
2022-12-07T12:04:28.686Z,6.67
2022-12-07T12:06:55.672Z,6.56
2022-12-07T12:09:41.079Z,6.53
2022-12-07T12:15:30.728Z,6.50
2022-12-07T12:18:31.395Z,6.55
2022-12-07T12:21:27.674Z,6.68
2022-12-07T12:24:10.750Z,6.68
2022-12-07T12:26:38.418Z,6.04
2022-12-07T12:29:07.995Z,6.04
2022-12-07T12:31:39.248Z,6.13
2022-12-07T12:34:31.679Z,5.48
2022-12-07T12:36:58.271Z,5.30
2022-12-07T12:39:24.809Z,5.62
2022-12-07T12:41:51.208Z,5.27
2022-12-07T12:44:18.017Z,5.31
2022-12-07T12:46:54.657Z,5.27
2022-12-07T12:49:21.813Z,5.57
2022-12-07T12:51:53.766Z,5.14
2022-12-07T12:54:28.559Z,4.80
2022-12-07T12:57:14.403Z,4.78
2022-12-07T12:59:58.683Z,5.14
2022-12-07T13:02:38.991Z,5.01
2022-12-07T13:05:08.483Z,4.79
2022-12-07T13:07:46.937Z,5.00
2022-12-07T13:10:32.812Z,5.27
2022-12-07T13:13:19.603Z,4.91
2022-12-07T13:15:55.128Z,4.85
2022-12-07T13:18:28.718Z,4.89
2022-12-07T13:20:56.025Z,5.11
2022-12-07T13:23:44.534Z,4.70
2022-12-07T13:26:20.809Z,4.36
2022-12-07T13:28:47.370Z,4.64
2022-12-07T13:31:43.997Z,4.95
2022-12-07T13:34:30.446Z,5.31
2022-12-07T13:36:57.770Z,5.17
2022-12-07T13:39:26.357Z,4.99
2022-12-07T13:41:55.342Z,5.09
2022-12-07T13:44:22.189Z,5.50
2022-12-07T13:46:51.808Z,5.59
2022-12-07T13:49:25.518Z,5.03
2022-12-07T13:51:52.703Z,5.10
2022-12-07T13:54:19.958Z,5.13
2022-12-07T13:56:51.037Z,4.72
2022-12-07T13:59:20.645Z,4.97
2022-12-07T14:01:49.340Z,5.11
2022-12-07T14:04:33.714Z,5.02
2022-12-07T14:07:01.294Z,5.28
2022-12-07T14:09:28.870Z,5.53
2022-12-07T14:11:57.048Z,5.63
2022-12-07T14:14:30.446Z,5.19
2022-12-07T14:17:14.303Z,4.71
2022-12-07T14:19:50.122Z,4.69
2022-12-07T14:22:26.838Z,4.78
2022-12-07T14:25:19.673Z,4.93
2022-12-07T14:27:55.001Z,4.88
2022-12-07T14:30:21.584Z,4.97
2022-12-07T14:32:52.178Z,5.24
2022-12-07T14:35:19.594Z,5.12
2022-12-07T14:37:48.054Z,5.41
2022-12-07T14:40:17.729Z,5.76
2022-12-07T14:42:46.442Z,5.73
2022-12-07T14:45:17.817Z,5.90
2022-12-07T14:50:37.098Z,5.95
2022-12-07T14:53:24.687Z,5.90
2022-12-07T14:55:51.229Z,6.10
2022-12-07T14:58:18.407Z,5.61
2022-12-07T15:00:47.976Z,5.68
2022-12-07T15:03:14.796Z,5.06
2022-12-07T15:05:42.092Z,5.37
2022-12-07T15:08:13.812Z,5.65
2022-12-07T15:10:40.837Z,5.36
2022-12-07T15:13:10.625Z,5.54
2022-12-07T15:15:37.207Z,5.30
2022-12-07T15:18:06.727Z,5.35
2022-12-07T15:20:33.293Z,5.21
2022-12-07T15:22:59.814Z,5.07
2022-12-07T15:25:26.325Z,5.28
2022-12-07T15:27:54.516Z,5.35
2022-12-07T15:30:21.207Z,5.40
2022-12-07T15:32:54.132Z,5.29
2022-12-07T15:35:21.205Z,5.52
2022-12-07T15:37:47.974Z,5.58
2022-12-07T15:40:14.646Z,5.64
2022-12-07T15:42:41.770Z,5.78
2022-12-07T15:45:09.268Z,5.95
2022-12-07T15:48:19.787Z,5.65
2022-12-07T15:50:30.413Z,5.66
2022-12-07T15:52:59.926Z,5.41
2022-12-07T15:55:26.467Z,5.31
2022-12-07T15:57:53.501Z,5.49
2022-12-07T16:00:21.562Z,5.67
2022-12-07T16:02:51.334Z,5.46
2022-12-07T16:05:18.012Z,5.57
2022-12-07T16:07:46.712Z,5.27
2022-12-07T16:10:13.335Z,5.39
2022-12-07T16:12:39.822Z,5.02
2022-12-07T16:15:07.102Z,5.05
2022-12-07T16:17:33.755Z,4.85
2022-12-07T16:20:00.348Z,4.86
2022-12-07T16:22:26.847Z,4.86
2022-12-07T16:24:53.459Z,4.87
2022-12-07T16:27:19.967Z,5.11
2022-12-07T16:29:46.453Z,5.38
2022-12-07T16:32:13.070Z,5.42
2022-12-07T16:34:40.614Z,5.13
2022-12-07T16:37:07.322Z,5.27
2022-12-07T16:39:34.823Z,5.29
2022-12-07T16:42:01.452Z,5.18
2022-12-07T16:44:28.100Z,4.95
2022-12-07T16:46:56.767Z,5.19
2022-12-07T16:49:23.367Z,5.21
2022-12-07T16:52:14.878Z,5.07
2022-12-07T16:54:39.520Z,5.07
2022-12-07T16:57:06.121Z,5.09
2022-12-07T16:59:32.717Z,4.69
2022-12-07T17:01:59.399Z,4.63
2022-12-07T17:04:26.066Z,4.49
2022-12-07T17:06:52.653Z,4.32
2022-12-07T17:09:21.345Z,4.26
2022-12-07T17:11:49.143Z,4.28
2022-12-07T17:14:15.939Z,4.40
2022-12-07T17:16:45.186Z,4.24
2022-12-07T17:19:14.789Z,4.26
2022-12-07T17:21:41.857Z,4.42
2022-12-07T17:24:09.937Z,4.57
2022-12-07T17:26:37.171Z,4.26
2022-12-07T17:29:05.214Z,4.28
2022-12-07T17:31:32.018Z,4.36
2022-12-07T17:33:58.653Z,4.28
2022-12-07T17:36:27.590Z,4.35
2022-12-07T17:38:54.368Z,4.20
2022-12-07T17:41:26.682Z,4.25
2022-12-07T17:43:53.191Z,4.04
2022-12-07T17:46:19.708Z,3.74
2022-12-07T17:48:48.987Z,3.62
2022-12-07T17:51:15.562Z,3.55
2022-12-07T17:53:42.149Z,3.65
2022-12-07T17:58:55.103Z,3.12
2022-12-07T18:01:25.345Z,3.23
2022-12-07T18:03:54.094Z,3.11
2022-12-07T18:06:20.597Z,3.01
2022-12-07T18:08:47.246Z,3.10
2022-12-07T18:11:14.302Z,3.13
2022-12-07T18:13:40.806Z,3.01
2022-12-07T18:16:10.119Z,3.09
2022-12-07T18:18:36.953Z,2.82
2022-12-07T18:21:17.834Z,2.71
2022-12-07T18:23:46.819Z,2.59
2022-12-07T18:26:14.298Z,2.45
2022-12-07T18:28:41.514Z,2.29
2022-12-07T18:31:16.131Z,2.10
2022-12-07T18:33:43.733Z,2.04
2022-12-07T18:36:10.641Z,2.25
2022-12-07T18:38:37.434Z,2.39
2022-12-07T18:41:04.212Z,2.46
2022-12-07T18:43:30.755Z,2.72
2022-12-07T18:45:57.549Z,2.70
2022-12-07T18:48:26.737Z,3.03
2022-12-07T18:51:05.227Z,3.28
2022-12-07T18:53:32.611Z,3.62
2022-12-07T18:56:28.801Z,4.02
2022-12-07T18:58:59.750Z,4.17
2022-12-07T19:01:28.950Z,4.44
2022-12-07T19:03:56.000Z,4.36
2022-12-07T19:06:22.527Z,4.34
2022-12-07T19:08:49.106Z,3.93
2022-12-07T19:11:24.431Z,3.54
2022-12-07T19:13:51.594Z,3.26
2022-12-07T19:16:18.291Z,3.33
2022-12-07T19:18:50.667Z,3.36
2022-12-07T19:21:18.245Z,3.57
2022-12-07T19:23:44.741Z,3.36
2022-12-07T19:26:11.357Z,3.21
2022-12-07T19:28:37.920Z,3.10
2022-12-07T19:31:08.297Z,3.04
2022-12-07T19:33:34.903Z,3.09
2022-12-07T19:36:01.465Z,3.11
2022-12-07T19:38:30.785Z,3.19
2022-12-07T19:41:11.356Z,3.36
2022-12-07T19:43:45.118Z,3.36
2022-12-07T19:46:11.708Z,3.23
2022-12-07T19:48:38.259Z,3.09
2022-12-07T19:51:05.531Z,3.31
2022-12-07T19:53:32.834Z,3.60
2022-12-07T19:55:59.426Z,3.55
2022-12-07T19:58:26.476Z,3.53
2022-12-07T20:00:53.091Z,3.36
2022-12-07T20:03:19.990Z,3.37
2022-12-07T20:05:46.570Z,3.19
2022-12-07T20:08:13.123Z,3.06
2022-12-07T20:10:40.202Z,2.98
2022-12-07T20:13:06.725Z,3.06
2022-12-07T20:15:35.169Z,3.25
2022-12-07T20:18:05.220Z,3.29
2022-12-07T20:20:34.422Z,3.62
2022-12-07T20:23:01.018Z,3.77
2022-12-07T20:25:27.612Z,3.86
2022-12-07T20:27:54.334Z,3.95
2022-12-07T20:30:21.057Z,3.91
2022-12-07T20:32:49.539Z,3.91
2022-12-07T20:35:16.086Z,3.81
2022-12-07T20:37:42.642Z,3.78
2022-12-07T20:40:09.420Z,3.87
2022-12-07T20:42:35.946Z,3.85
2022-12-07T20:45:03.741Z,3.74
2022-12-07T20:47:30.616Z,3.93
2022-12-07T20:49:57.234Z,3.88
2022-12-07T20:52:23.832Z,3.64
2022-12-07T20:54:50.398Z,3.61
2022-12-07T20:57:17.054Z,3.52
2022-12-07T20:59:43.830Z,3.66
2022-12-07T21:02:12.363Z,3.79
2022-12-07T21:04:39.264Z,3.91
2022-12-07T21:07:05.819Z,4.19
2022-12-07T21:09:32.414Z,4.45
2022-12-07T21:11:59.866Z,4.13
2022-12-07T21:14:26.421Z,4.22
2022-12-07T21:16:53.019Z,4.23
2022-12-07T21:19:19.642Z,3.95
2022-12-07T21:21:46.140Z,3.86
2022-12-07T21:24:12.710Z,3.92
2022-12-07T21:26:39.300Z,4.00
2022-12-07T21:29:07.249Z,4.01
2022-12-07T21:31:34.209Z,4.12
2022-12-07T21:34:04.227Z,4.06
2022-12-07T21:36:31.682Z,4.11
2022-12-07T21:38:58.684Z,4.37
2022-12-07T21:41:26.413Z,4.29
2022-12-07T21:43:53.348Z,4.18
2022-12-07T21:46:28.117Z,4.20
2022-12-07T21:49:00.477Z,4.10
2022-12-07T21:51:29.787Z,3.94
2022-12-07T21:53:58.202Z,4.09
2022-12-07T21:56:30.056Z,4.00
2022-12-07T21:59:02.272Z,4.19
2022-12-07T22:01:31.094Z,4.27
2022-12-07T22:03:57.803Z,4.26
2022-12-07T22:06:25.751Z,4.31
2022-12-07T22:08:53.004Z,4.25
2022-12-07T22:11:20.153Z,4.07
2022-12-07T22:13:47.226Z,4.13
2022-12-07T22:16:19.140Z,4.23
2022-12-07T22:18:45.701Z,4.22
2022-12-07T22:21:12.271Z,4.32
2022-12-07T22:23:38.809Z,4.35
2022-12-07T22:26:10.146Z,4.06
2022-12-07T22:28:40.760Z,4.24
2022-12-07T22:31:09.387Z,4.26
2022-12-07T22:33:36.360Z,4.20
2022-12-07T22:36:03.332Z,4.09
2022-12-07T22:38:30.741Z,4.05
2022-12-07T22:40:57.483Z,4.12
2022-12-07T22:43:24.644Z,4.20
2022-12-07T22:45:59.074Z,4.19
2022-12-07T22:48:26.345Z,4.35
2022-12-07T22:50:54.757Z,4.21
2022-12-07T22:53:22.437Z,4.25
2022-12-07T22:55:49.382Z,4.15
2022-12-07T22:58:16.614Z,4.03
2022-12-07T23:00:43.266Z,3.97
2022-12-07T23:03:10.118Z,3.98
2022-12-07T23:05:44.932Z,4.00
2022-12-07T23:08:12.154Z,4.03
2022-12-07T23:10:46.627Z,4.28
2022-12-07T23:13:14.710Z,4.12
2022-12-07T23:15:41.298Z,4.19
2022-12-07T23:18:07.836Z,4.30
2022-12-07T23:20:34.521Z,4.16
2022-12-07T23:23:01.195Z,4.17
2022-12-07T23:25:27.814Z,4.19
2022-12-07T23:27:54.437Z,4.13
2022-12-07T23:30:21.150Z,3.96
2022-12-07T23:32:47.714Z,4.00
2022-12-07T23:35:14.257Z,4.01
2022-12-07T23:37:40.746Z,4.01
2022-12-07T23:40:08.416Z,4.03
2022-12-07T23:42:34.950Z,4.04
2022-12-07T23:45:01.914Z,4.09
2022-12-07T23:47:28.685Z,4.12
2022-12-07T23:49:55.609Z,4.03
2022-12-07T23:52:22.158Z,4.15
2022-12-07T23:54:48.714Z,4.12
2022-12-07T23:57:15.274Z,4.11
2022-12-07T23:59:42.185Z,4.13
